Time;durP1;ratioP1;P1;durP2;ratioP2;P2;SDS_P1;SDS_P2;PMS_P1;PMS_P2;Temp;Humidity;BMP_temperature;BMP_pressure;BME280_temperature;BME280_humidity;BME280_pressure;Samples;Min_cycle;Max_cycle;Signal;HPM_P1;HPM_P2
2021/07/14 00:00:01;;;;;;;5.15;1.50;;;15.10;99.90;;;;;;4976241;28;20455;-88
2021/07/14 00:02:26;;;;;;;4.90;1.20;;;15.30;99.90;;;;;;4993474;28;20077;-88
2021/07/14 00:04:52;;;;;;;10.68;1.27;;;15.40;99.90;;;;;;4993741;28;20023;-88
2021/07/14 00:07:18;;;;;;;7.38;1.20;;;15.40;99.90;;;;;;4976115;28;20474;-87
2021/07/14 00:09:44;;;;;;;3.90;1.20;;;15.20;99.90;;;;;;4976348;28;20034;-88
2021/07/14 00:12:11;;;;;;;4.72;1.30;;;15.30;99.90;;;;;;4976141;28;20030;-88
2021/07/14 00:22:31;;;;;;;4.30;1.38;;;15.00;99.90;;;;;;4997579;28;20037;-88
2021/07/14 00:24:57;;;;;;;9.88;1.58;;;15.00;99.90;;;;;;4979418;28;20026;-88
2021/07/14 00:27:24;;;;;;;4.53;1.27;;;15.20;99.90;;;;;;4979508;28;20394;-88
2021/07/14 00:29:58;;;;;;;6.82;1.17;;;15.20;99.90;;;;;;4979498;28;20053;-88
2021/07/14 00:32:25;;;;;;;11.05;1.30;;;15.40;99.90;;;;;;4979523;28;20072;-88
2021/07/14 00:34:52;;;;;;;5.20;1.45;;;15.40;99.90;;;;;;4979395;28;20034;-87
2021/07/14 00:37:18;;;;;;;5.32;1.10;;;15.40;99.90;;;;;;4979059;28;20042;-87
2021/07/14 00:39:45;;;;;;;4.28;1.40;;;15.40;99.90;;;;;;4996711;28;20022;-88
2021/07/14 00:42:12;;;;;;;6.28;1.27;;;15.10;99.90;;;;;;4979255;28;20022;-87
2021/07/14 00:44:38;;;;;;;5.47;1.40;;;15.10;99.90;;;;;;4979281;28;20026;-88
2021/07/14 00:47:05;;;;;;;3.15;1.33;;;15.20;99.90;;;;;;4979149;28;20030;-88
2021/07/14 00:49:33;;;;;;;5.53;1.20;;;15.30;99.90;;;;;;4978990;28;20026;-87
2021/07/14 00:51:58;;;;;;;9.75;1.48;;;15.40;99.90;;;;;;4979192;28;20034;-88
2021/07/14 00:54:24;;;;;;;6.78;1.40;;;15.50;99.90;;;;;;4979143;28;20022;-88
2021/07/14 00:56:50;;;;;;;3.45;1.42;;;15.40;99.90;;;;;;4978955;28;20385;-88
2021/07/14 00:59:16;;;;;;;5.40;1.40;;;15.50;99.90;;;;;;4978947;28;20022;-88
2021/07/14 01:01:48;;;;;;;5.28;1.50;;;15.30;99.90;;;;;;4978713;28;20050;-87
2021/07/14 01:04:34;;;;;;;5.50;1.30;;;15.20;99.90;;;;;;4978992;28;20018;-88
2021/07/14 01:07:10;;;;;;;5.80;1.33;;;15.00;99.90;;;;;;4978790;28;20034;-88
2021/07/14 01:10:05;;;;;;;4.53;1.65;;;15.00;99.90;;;;;;4978682;28;20130;-88
2021/07/14 01:12:59;;;;;;;0.95;0.93;;;15.00;99.90;;;;;;4978761;28;20034;-88
2021/07/14 01:15:29;;;;;;;9.90;1.40;;;15.10;99.90;;;;;;4969325;28;20034;-88
2021/07/14 01:18:09;;;;;;;6.85;1.30;;;14.70;99.90;;;;;;4978503;28;20038;-87
2021/07/14 01:20:47;;;;;;;6.07;1.50;;;14.50;99.90;;;;;;4978604;28;20027;-88
2021/07/14 01:23:42;;;;;;;3.78;1.23;;;14.40;99.90;;;;;;4978503;28;20478;-88
2021/07/14 01:26:32;;;;;;;5.38;1.40;;;14.50;99.90;;;;;;4978452;28;20030;-88
2021/07/14 01:29:00;;;;;;;5.28;1.20;;;14.80;99.90;;;;;;4978374;28;20065;-87
2021/07/14 01:31:26;;;;;;;8.70;1.55;;;15.00;99.90;;;;;;4977441;28;20064;-88
2021/07/14 01:33:57;;;;;;;4.05;1.40;;;15.00;99.90;;;;;;4946297;28;20061;-88
2021/07/14 01:36:23;;;;;;;7.60;1.60;;;14.80;99.90;;;;;;4978670;28;20121;-88
2021/07/14 01:38:49;;;;;;;6.47;1.67;;;14.50;99.90;;;;;;4978311;28;20027;-88
2021/07/14 01:41:18;;;;;;;4.70;1.67;;;14.50;99.90;;;;;;4978143;28;20532;-88
2021/07/14 01:43:48;;;;;;;5.75;1.63;;;14.50;99.90;;;;;;4978167;28;20026;-88
2021/07/14 01:46:16;;;;;;;5.82;1.70;;;14.40;99.90;;;;;;4978135;28;20041;-87
2021/07/14 01:48:45;;;;;;;13.90;1.40;;;14.60;99.90;;;;;;4978123;28;20026;-88
2021/07/14 01:51:12;;;;;;;10.32;1.80;;;14.70;99.90;;;;;;4988881;28;20054;-87
2021/07/14 01:53:38;;;;;;;6.78;1.60;;;14.60;99.90;;;;;;4988615;28;20101;-87
2021/07/14 01:56:09;;;;;;;10.73;1.77;;;14.70;99.90;;;;;;4979782;28;20035;-88
2021/07/14 01:58:40;;;;;;;8.85;1.80;;;14.50;99.90;;;;;;4979316;28;20026;-88
2021/07/14 02:01:08;;;;;;;5.78;1.48;;;14.60;99.90;;;;;;4978276;28;20364;-88
2021/07/14 02:06:03;;;;;;;7.40;1.85;;;15.30;99.90;;;;;;4995042;28;20073;-87
2021/07/14 02:08:30;;;;;;;2.90;1.50;;;15.50;99.90;;;;;;4995093;28;20026;-88
2021/07/14 02:10:58;;;;;;;6.30;2.28;;;15.50;99.90;;;;;;4977776;28;20022;-88
2021/07/14 02:13:29;;;;;;;8.40;2.30;;;15.50;99.90;;;;;;4977590;28;20023;-89
2021/07/14 02:15:58;;;;;;;7.50;2.22;;;15.40;99.90;;;;;;4977507;28;20027;-88
2021/07/14 02:18:28;;;;;;;6.10;1.70;;;15.50;99.90;;;;;;4977493;28;20018;-88
2021/07/14 02:20:56;;;;;;;10.13;1.70;;;15.50;99.90;;;;;;4977284;28;20018;-88
2021/07/14 02:23:22;;;;;;;2.30;1.67;;;15.50;99.90;;;;;;4977448;28;20015;-88
2021/07/14 02:25:48;;;;;;;8.07;2.42;;;15.40;99.90;;;;;;4977307;28;20029;-89
2021/07/14 02:28:14;;;;;;;7.15;1.75;;;15.40;99.90;;;;;;4994879;28;20050;-88
2021/07/14 02:30:39;;;;;;;7.50;1.80;;;15.40;99.90;;;;;;4977389;28;20482;-87
2021/07/14 02:33:08;;;;;;;8.45;2.10;;;15.30;99.90;;;;;;4977667;28;20093;-87
2021/07/14 02:35:40;;;;;;;5.72;1.70;;;15.30;99.90;;;;;;4994766;28;20034;-88
2021/07/14 02:38:20;;;;;;;9.27;2.13;;;15.10;99.90;;;;;;4977181;28;20034;-88
2021/07/14 02:40:59;;;;;;;9.82;2.30;;;15.10;99.90;;;;;;4978015;28;20481;-88
2021/07/14 02:43:28;;;;;;;6.63;2.30;;;15.10;99.90;;;;;;4976989;28;20018;-87
2021/07/14 02:45:59;;;;;;;8.98;2.10;;;15.10;99.90;;;;;;4977297;28;20058;-86
2021/07/14 02:48:26;;;;;;;6.70;2.15;;;15.00;99.90;;;;;;4976900;28;20101;-88
2021/07/14 02:50:54;;;;;;;10.40;2.50;;;14.90;99.90;;;;;;4977012;28;20033;-88
2021/07/14 02:53:25;;;;;;;6.90;2.10;;;14.90;99.90;;;;;;4976927;28;20037;-88
2021/07/14 02:56:03;;;;;;;7.40;2.15;;;14.90;99.90;;;;;;4977049;28;20476;-88
2021/07/14 02:58:31;;;;;;;10.48;2.80;;;15.00;99.90;;;;;;4976925;28;20114;-88
2021/07/14 03:00:59;;;;;;;9.38;2.33;;;15.00;99.90;;;;;;4976747;28;20483;-88
2021/07/14 03:03:26;;;;;;;6.55;2.00;;;15.00;99.90;;;;;;4976546;28;20105;-88
2021/07/14 03:05:55;;;;;;;9.20;2.60;;;15.10;99.90;;;;;;4976695;28;20430;-87
2021/07/14 03:08:28;;;;;;;5.18;2.42;;;15.20;99.90;;;;;;4976666;28;20482;-88
2021/07/14 03:10:55;;;;;;;5.03;2.20;;;15.20;99.90;;;;;;4976725;28;20022;-88
2021/07/14 03:13:25;;;;;;;4.50;2.08;;;15.20;99.90;;;;;;4976784;28;20426;-87
2021/07/14 03:15:52;;;;;;;9.95;2.83;;;15.20;99.90;;;;;;4960655;28;20042;-88
2021/07/14 03:18:19;;;;;;;6.35;2.25;;;15.20;99.90;;;;;;4976489;28;20453;-88
2021/07/14 03:20:46;;;;;;;5.50;1.90;;;15.10;99.90;;;;;;4976522;28;20022;-88
2021/07/14 03:23:15;;;;;;;11.10;2.40;;;15.10;99.90;;;;;;4976485;28;20026;-87
2021/07/14 03:25:45;;;;;;;6.93;2.30;;;15.10;99.90;;;;;;4976469;28;20394;-88
2021/07/14 03:28:11;;;;;;;7.45;2.20;;;15.00;99.90;;;;;;4977222;28;20026;-87
2021/07/14 03:30:37;;;;;;;10.93;2.33;;;15.00;99.90;;;;;;4976408;28;20046;-87
2021/07/14 03:33:03;;;;;;;4.40;2.15;;;15.10;99.90;;;;;;4976354;28;20070;-88
2021/07/14 03:35:29;;;;;;;10.63;2.30;;;15.10;99.90;;;;;;4976309;28;20041;-87
2021/07/14 03:37:57;;;;;;;9.23;2.50;;;15.10;99.90;;;;;;4976499;28;20031;-88
2021/07/14 03:40:23;;;;;;;6.07;2.10;;;15.20;99.90;;;;;;4978157;28;20030;-87
2021/07/14 03:42:52;;;;;;;4.32;2.28;;;15.20;99.90;;;;;;4978458;28;20033;-88
2021/07/14 03:45:18;;;;;;;8.13;1.92;;;15.20;99.90;;;;;;4977904;28;20030;-87
2021/07/14 03:47:44;;;;;;;4.15;2.10;;;15.20;99.90;;;;;;4978404;28;20046;-87
2021/07/14 03:50:12;;;;;;;8.10;2.00;;;15.00;99.90;;;;;;4995741;28;20054;-87
2021/07/14 03:52:38;;;;;;;3.70;1.60;;;15.10;99.90;;;;;;4977955;28;20442;-87
2021/07/14 03:55:05;;;;;;;4.93;1.50;;;15.20;99.90;;;;;;4980095;28;20076;-87
2021/07/14 03:57:32;;;;;;;6.05;1.60;;;15.20;99.90;;;;;;4998932;28;20118;-88
2021/07/14 03:59:58;;;;;;;5.13;1.73;;;15.20;99.90;;;;;;4982376;28;21067;-87
2021/07/14 04:02:25;;;;;;;7.03;1.77;;;15.30;99.90;;;;;;4991602;28;20042;-87
2021/07/14 04:04:51;;;;;;;5.72;2.05;;;15.30;99.90;;;;;;4990730;28;20027;-87
2021/07/14 04:07:22;;;;;;;4.78;1.85;;;15.40;99.90;;;;;;4983191;28;20081;-87
2021/07/14 04:09:48;;;;;;;3.97;1.52;;;15.40;99.90;;;;;;4982693;28;20034;-87
2021/07/14 04:12:14;;;;;;;4.03;1.50;;;15.50;99.90;;;;;;4998660;28;20049;-87
2021/07/14 04:14:40;;;;;;;6.13;1.70;;;15.50;99.90;;;;;;4998932;28;20105;-87
2021/07/14 04:17:06;;;;;;;7.25;2.25;;;15.50;99.90;;;;;;4981427;28;20475;-87
2021/07/14 04:19:32;;;;;;;6.75;1.58;;;15.50;99.90;;;;;;4981463;28;20105;-86
2021/07/14 04:21:58;;;;;;;4.40;2.00;;;15.40;99.90;;;;;;4981415;28;20037;-88
2021/07/14 04:24:24;;;;;;;10.50;2.25;;;15.40;99.90;;;;;;4981544;28;20022;-87
2021/07/14 04:26:50;;;;;;;4.38;1.80;;;15.40;99.90;;;;;;4998947;28;20033;-87
2021/07/14 04:29:16;;;;;;;9.75;1.75;;;15.30;99.90;;;;;;4980777;28;20022;-87
2021/07/14 04:31:42;;;;;;;5.95;1.70;;;15.30;99.90;;;;;;4981609;28;20029;-87
2021/07/14 04:34:08;;;;;;;9.57;1.90;;;15.30;99.90;;;;;;4981470;28;20532;-87
2021/07/14 04:36:35;;;;;;;3.40;1.98;;;15.30;99.90;;;;;;4981092;28;20034;-87
2021/07/14 04:39:03;;;;;;;3.60;1.85;;;15.20;99.90;;;;;;4998767;28;20022;-87
2021/07/14 04:41:28;;;;;;;11.23;1.85;;;15.20;99.90;;;;;;4981269;28;20026;-87
2021/07/14 04:44:01;;;;;;;8.38;2.08;;;15.10;99.90;;;;;;4981089;28;20041;-87
2021/07/14 04:46:28;;;;;;;4.38;1.77;;;15.20;99.90;;;;;;4980734;28;20096;-86
2021/07/14 04:48:54;;;;;;;8.48;1.80;;;15.10;99.90;;;;;;4980936;28;20077;-87
2021/07/14 04:51:20;;;;;;;7.88;2.13;;;14.90;99.90;;;;;;4980923;28;20030;-88
2021/07/14 04:53:46;;;;;;;4.45;1.88;;;14.90;99.90;;;;;;4980888;28;20058;-86
2021/07/14 04:56:13;;;;;;;2.03;1.83;;;15.00;99.90;;;;;;4980667;28;20026;-87
2021/07/14 04:58:39;;;;;;;5.22;1.65;;;15.10;99.90;;;;;;4981813;28;20017;-87
2021/07/14 05:01:05;;;;;;;7.25;1.70;;;15.10;99.90;;;;;;4980874;28;20109;-87
2021/07/14 05:03:31;;;;;;;6.90;1.63;;;15.00;99.90;;;;;;4979788;28;20066;-87
2021/07/14 05:05:56;;;;;;;13.82;1.92;;;14.90;99.90;;;;;;4979380;28;20080;-87
2021/07/14 05:08:22;;;;;;;6.68;1.67;;;15.00;99.90;;;;;;4980590;28;20026;-86
2021/07/14 05:10:48;;;;;;;9.55;1.83;;;14.90;99.90;;;;;;4980431;28;20153;-87
2021/07/14 05:13:16;;;;;;;4.88;1.30;;;15.00;99.90;;;;;;4981296;28;20077;-87
2021/07/14 05:15:44;;;;;;;9.57;1.95;;;15.20;99.90;;;;;;4980324;28;20058;-87
2021/07/14 05:18:11;;;;;;;5.93;1.70;;;15.30;99.90;;;;;;4980569;28;20536;-87
2021/07/14 05:20:36;;;;;;;4.38;1.95;;;15.40;99.90;;;;;;4997357;28;20457;-87
2021/07/14 05:23:02;;;;;;;3.13;1.70;;;15.30;99.90;;;;;;4980021;28;20026;-87
2021/07/14 05:25:28;;;;;;;3.00;1.60;;;15.40;99.90;;;;;;4980187;28;20430;-87
2021/07/14 05:27:53;;;;;;;8.40;1.95;;;15.40;99.90;;;;;;4980454;28;20457;-87
2021/07/14 05:30:19;;;;;;;8.30;1.48;;;15.30;99.90;;;;;;4980020;28;20027;-86
2021/07/14 05:32:45;;;;;;;9.35;2.05;;;15.10;99.90;;;;;;4980063;28;20043;-86
2021/07/14 05:35:12;;;;;;;3.30;1.65;;;14.80;99.90;;;;;;4979956;28;20061;-87
2021/07/14 05:37:37;;;;;;;6.10;1.42;;;14.90;99.90;;;;;;4979174;28;20026;-87
2021/07/14 05:40:05;;;;;;;4.53;1.60;;;14.70;99.90;;;;;;4979749;28;20023;-86
2021/07/14 05:42:30;;;;;;;7.00;1.60;;;14.90;99.90;;;;;;4980169;28;20363;-87
2021/07/14 05:44:56;;;;;;;5.20;1.40;;;15.00;99.90;;;;;;4979754;28;20019;-86
2021/07/14 05:47:22;;;;;;;3.53;1.30;;;15.10;99.90;;;;;;4980893;28;20054;-87
2021/07/14 05:49:48;;;;;;;4.25;1.70;;;15.30;99.90;;;;;;4979727;28;20120;-87
2021/07/14 05:52:14;;;;;;;5.47;1.60;;;15.30;99.90;;;;;;4980188;28;20022;-87
2021/07/14 05:54:42;;;;;;;7.60;1.88;;;15.40;99.90;;;;;;4996150;28;20022;-87
2021/07/14 05:57:08;;;;;;;3.75;1.80;;;15.40;99.90;;;;;;4979629;28;20100;-87
2021/07/14 05:59:34;;;;;;;5.45;1.50;;;15.50;99.90;;;;;;4979430;28;20049;-87
2021/07/14 06:01:59;;;;;;;7.35;1.80;;;15.60;99.90;;;;;;4979467;28;20046;-87
2021/07/14 06:04:25;;;;;;;5.75;1.83;;;15.60;99.90;;;;;;4979582;28;20166;-87
2021/07/14 06:06:51;;;;;;;4.95;1.50;;;15.60;99.90;;;;;;4979276;28;20026;-87
2021/07/14 06:09:16;;;;;;;12.05;1.70;;;15.80;99.90;;;;;;4996732;28;20022;-87
2021/07/14 06:11:42;;;;;;;3.35;1.40;;;15.80;99.90;;;;;;4978532;28;20033;-87
2021/07/14 06:14:09;;;;;;;6.93;1.85;;;15.90;99.90;;;;;;5004581;28;20569;-86
2021/07/14 06:16:35;;;;;;;10.30;1.88;;;16.00;99.90;;;;;;4986319;28;20030;-87
2021/07/14 06:19:00;;;;;;;7.38;1.73;;;15.90;99.90;;;;;;4980400;28;20027;-86
2021/07/14 06:21:26;;;;;;;2.20;1.80;;;15.90;99.90;;;;;;4980129;28;20505;-87
2021/07/14 06:23:52;;;;;;;6.47;1.70;;;15.80;99.90;;;;;;4979383;28;20026;-86
2021/07/14 06:26:20;;;;;;;4.97;1.77;;;15.60;99.90;;;;;;4978685;28;20555;-87
2021/07/14 06:28:45;;;;;;;4.88;1.52;;;15.70;99.90;;;;;;4978744;28;20440;-88
2021/07/14 06:31:11;;;;;;;4.90;1.38;;;15.80;99.90;;;;;;4996961;28;20023;-88
2021/07/14 06:33:39;;;;;;;5.95;1.67;;;16.00;99.90;;;;;;4978984;28;20030;-88
2021/07/14 06:36:05;;;;;;;11.50;2.00;;;16.00;99.90;;;;;;4979030;28;20105;-86
2021/07/14 06:38:33;;;;;;;4.95;1.98;;;16.10;99.90;;;;;;4979061;28;20501;-87
2021/07/14 06:40:58;;;;;;;7.65;2.00;;;16.00;99.90;;;;;;4978956;28;20033;-87
2021/07/14 06:43:41;;;;;;;4.03;1.73;;;16.00;99.90;;;;;;4979007;28;20018;-88
2021/07/14 06:46:08;;;;;;;7.70;2.17;;;15.90;99.90;;;;;;4978726;28;20023;-87
2021/07/14 06:48:34;;;;;;;4.53;1.60;;;16.10;99.90;;;;;;4977968;28;20033;-84
2021/07/14 06:50:59;;;;;;;6.38;2.10;;;16.20;99.90;;;;;;4962108;28;20022;-84
2021/07/14 06:53:25;;;;;;;6.57;1.80;;;16.20;99.90;;;;;;4978238;28;20057;-84
2021/07/14 06:55:51;;;;;;;9.25;2.60;;;16.20;99.90;;;;;;4978212;28;20546;-84
2021/07/14 06:58:18;;;;;;;7.20;2.00;;;16.00;99.90;;;;;;4995098;28;20034;-84
2021/07/14 07:00:44;;;;;;;9.43;2.60;;;16.00;99.90;;;;;;4977779;28;20045;-85
2021/07/14 07:03:10;;;;;;;6.90;2.40;;;16.10;99.90;;;;;;4995339;28;20525;-84
2021/07/14 07:05:36;;;;;;;23.35;2.60;;;16.10;99.90;;;;;;4977584;28;20390;-84
2021/07/14 07:08:03;;;;;;;9.40;2.70;;;16.10;99.90;;;;;;4978028;28;20041;-84
2021/07/14 07:10:28;;;;;;;8.80;2.70;;;16.10;99.90;;;;;;4978338;28;20073;-85
2021/07/14 07:12:54;;;;;;;9.38;2.58;;;16.00;99.90;;;;;;4977998;28;20081;-84
2021/07/14 07:15:20;;;;;;;9.38;2.50;;;16.00;99.90;;;;;;4978315;28;20033;-84
2021/07/14 07:17:47;;;;;;;5.82;2.00;;;16.00;99.90;;;;;;4978279;28;20022;-85
2021/07/14 07:20:14;;;;;;;6.40;2.60;;;16.20;99.90;;;;;;4978041;28;20026;-84
2021/07/14 07:22:41;;;;;;;7.43;2.55;;;16.10;99.90;;;;;;4977336;28;20027;-84
2021/07/14 07:25:07;;;;;;;7.18;2.60;;;16.20;99.90;;;;;;4978521;28;20029;-85
2021/07/14 07:27:37;;;;;;;7.60;2.42;;;15.90;99.90;;;;;;4995338;28;20050;-84
2021/07/14 07:30:08;;;;;;;5.55;2.25;;;16.00;99.90;;;;;;4981110;28;20444;-84
2021/07/14 07:32:34;;;;;;;6.47;2.42;;;16.10;99.90;;;;;;4981935;28;20121;-85
2021/07/14 07:35:00;;;;;;;9.02;3.10;;;16.10;99.90;;;;;;4981968;28;20087;-84
2021/07/14 07:37:26;;;;;;;9.50;2.40;;;15.90;99.90;;;;;;4981653;28;20026;-84
2021/07/14 07:39:52;;;;;;;5.15;2.47;;;16.00;99.90;;;;;;4981607;28;20026;-84
2021/07/14 07:42:18;;;;;;;6.78;2.33;;;16.00;99.90;;;;;;4981549;28;20490;-84
2021/07/14 07:44:43;;;;;;;8.98;2.22;;;16.20;99.90;;;;;;4999302;28;20500;-85
2021/07/14 07:47:10;;;;;;;7.85;2.17;;;16.30;99.90;;;;;;4981553;28;20121;-84
2021/07/14 07:49:36;;;;;;;3.40;2.20;;;16.40;99.90;;;;;;4982045;28;20081;-86
2021/07/14 07:52:03;;;;;;;3.70;1.63;;;16.50;99.90;;;;;;4981646;28;20031;-84
2021/07/14 07:54:29;;;;;;;6.32;1.90;;;16.50;99.90;;;;;;4981851;28;20393;-84
2021/07/14 07:56:54;;;;;;;5.82;2.40;;;16.50;99.90;;;;;;4980987;28;20030;-85
2021/07/14 07:59:21;;;;;;;6.40;2.13;;;16.40;99.90;;;;;;4981403;28;20032;-85
2021/07/14 08:01:46;;;;;;;10.80;2.50;;;16.30;99.90;;;;;;4981401;28;20043;-84
2021/07/14 08:04:12;;;;;;;2.85;1.80;;;16.30;99.90;;;;;;4982172;28;20029;-84
2021/07/14 08:06:38;;;;;;;4.05;2.20;;;16.40;99.90;;;;;;4981619;28;20045;-85
2021/07/14 08:09:05;;;;;;;6.97;2.63;;;16.40;99.90;;;;;;4981350;28;20482;-85
2021/07/14 08:11:31;;;;;;;8.43;2.22;;;16.40;99.90;;;;;;4998801;28;20483;-84
2021/07/14 08:13:59;;;;;;;11.65;2.67;;;16.30;99.90;;;;;;4998093;28;20022;-84
2021/07/14 08:16:25;;;;;;;6.90;2.03;;;16.30;99.90;;;;;;4981646;28;20390;-85
2021/07/14 08:18:52;;;;;;;6.05;2.17;;;16.40;99.90;;;;;;4981139;28;20043;-84
2021/07/14 08:21:18;;;;;;;7.35;2.25;;;16.50;99.90;;;;;;4998531;28;20030;-84
2021/07/14 08:23:44;;;;;;;5.18;2.42;;;16.50;99.90;;;;;;4980514;28;20034;-84
2021/07/14 08:26:12;;;;;;;5.50;2.30;;;16.40;99.90;;;;;;4981715;28;20022;-84
2021/07/14 08:28:38;;;;;;;5.22;2.40;;;16.50;99.90;;;;;;4983524;28;20080;-84
2021/07/14 08:31:04;;;;;;;4.35;2.20;;;16.60;99.90;;;;;;4981721;28;20088;-82
2021/07/14 08:33:30;;;;;;;2.90;2.05;;;16.60;99.90;;;;;;4980750;28;20486;-84
2021/07/14 08:35:56;;;;;;;10.15;2.55;;;16.70;99.90;;;;;;4980949;28;20027;-84
2021/07/14 08:38:22;;;;;;;8.57;2.40;;;16.70;99.90;;;;;;4980824;28;20034;-84
2021/07/14 08:40:51;;;;;;;3.45;2.13;;;16.60;99.90;;;;;;4998070;28;20022;-86
2021/07/14 08:43:18;;;;;;;3.28;2.15;;;16.70;99.90;;;;;;4980637;28;20022;-85
2021/07/14 08:45:45;;;;;;;5.78;2.25;;;16.90;99.90;;;;;;4980549;28;20030;-84
2021/07/14 08:48:15;;;;;;;5.40;2.47;;;16.80;99.90;;;;;;4980375;28;20034;-84
2021/07/14 08:50:44;;;;;;;5.90;2.03;;;16.70;99.90;;;;;;4979748;28;20445;-84
2021/07/14 08:53:18;;;;;;;5.25;2.00;;;16.70;99.90;;;;;;4980558;28;20034;-84
2021/07/14 08:55:46;;;;;;;3.97;2.15;;;16.70;99.90;;;;;;4980534;28;20478;-84
2021/07/14 08:58:19;;;;;;;5.78;1.73;;;16.90;99.90;;;;;;4980373;28;20097;-83
2021/07/14 09:00:47;;;;;;;6.07;2.50;;;16.90;99.90;;;;;;4980159;28;20029;-84
2021/07/14 09:03:13;;;;;;;7.70;2.33;;;16.70;99.90;;;;;;4997751;28;20489;-84
2021/07/14 09:05:39;;;;;;;5.07;2.20;;;16.70;99.90;;;;;;4980076;28;20122;-84
2021/07/14 09:08:05;;;;;;;3.45;2.17;;;16.70;99.90;;;;;;4979865;28;20030;-83
2021/07/14 09:10:31;;;;;;;5.25;2.17;;;16.90;99.90;;;;;;4979888;28;20037;-83
2021/07/14 09:12:59;;;;;;;4.75;2.05;;;16.90;99.90;;;;;;4980138;28;20069;-84
2021/07/14 09:15:27;;;;;;;11.18;2.10;;;16.90;99.90;;;;;;4997693;28;20532;-88
2021/07/14 09:17:57;;;;;;;4.78;2.20;;;17.00;99.90;;;;;;4980140;28;20065;-87
2021/07/14 09:20:29;;;;;;;5.47;2.45;;;17.00;99.90;;;;;;4981073;28;20372;-88
2021/07/14 09:23:07;;;;;;;4.10;2.30;;;17.00;99.90;;;;;;4981540;28;20019;-88
2021/07/14 09:25:53;;;;;;;6.40;2.13;;;16.80;99.90;;;;;;4980439;28;20398;-88
2021/07/14 09:28:21;;;;;;;11.57;2.80;;;16.90;99.90;;;;;;4980365;28;20042;-88
2021/07/14 09:30:59;;;;;;;4.45;2.22;;;17.10;99.90;;;;;;4980443;28;20022;-87
2021/07/14 09:33:25;;;;;;;6.45;2.22;;;17.30;99.90;;;;;;4980269;28;20026;-88
2021/07/14 09:35:53;;;;;;;4.32;2.17;;;17.40;99.90;;;;;;4980093;28;20034;-88
2021/07/14 09:38:21;;;;;;;13.23;2.47;;;17.20;99.90;;;;;;4979982;28;20113;-88
2021/07/14 09:40:55;;;;;;;7.78;2.30;;;17.40;99.90;;;;;;4978670;28;20490;-88
2021/07/14 09:43:29;;;;;;;6.32;2.00;;;17.60;99.90;;;;;;4978593;28;20077;-88
2021/07/14 09:45:56;;;;;;;;;;;17.70;99.90;;;;;;4979921;28;20058;-87
2021/07/14 09:48:33;;;;;;;4.25;1.67;;;17.60;99.90;;;;;;4962595;28;19910;-88
2021/07/14 09:51:01;;;;;;;4.25;2.00;;;17.70;99.90;;;;;;4978193;28;20042;-88
2021/07/14 09:53:30;;;;;;;4.32;1.58;;;17.70;99.90;;;;;;4994931;28;20072;-87
2021/07/14 09:55:58;;;;;;;3.15;1.38;;;17.70;99.90;;;;;;4978054;28;20465;-88
2021/07/14 09:58:26;;;;;;;2.03;1.40;;;17.80;99.90;;;;;;4995661;28;20026;-88
2021/07/14 10:00:59;;;;;;;6.72;1.67;;;18.00;99.90;;;;;;4977954;28;20029;-87
2021/07/14 10:03:52;;;;;;;7.60;1.40;;;18.00;99.90;;;;;;4977842;28;20129;-88
2021/07/14 10:06:25;;;;;;;5.43;1.33;;;18.10;99.90;;;;;;4977423;28;20030;-87
2021/07/14 10:08:51;;;;;;;1.98;1.52;;;18.20;99.90;;;;;;4978031;28;20045;-88
2021/07/14 10:11:26;;;;;;;3.92;1.30;;;18.20;99.90;;;;;;4977540;28;20109;-87
2021/07/14 10:13:58;;;;;;;3.70;1.30;;;18.30;99.90;;;;;;4977725;28;20062;-86
2021/07/14 10:16:44;;;;;;;3.75;1.30;;;18.30;99.90;;;;;;4978020;28;20490;-89
2021/07/14 10:19:18;;;;;;;4.63;0.90;;;18.60;99.90;;;;;;4995445;28;20094;-89
2021/07/14 10:21:49;;;;;;;1.42;1.00;;;18.70;99.90;;;;;;4994875;28;20030;-85
2021/07/14 10:24:16;;;;;;;2.55;0.90;;;18.70;99.90;;;;;;4977669;28;20030;-90
2021/07/14 10:26:46;;;;;;;2.78;1.00;;;18.90;99.90;;;;;;4978380;28;20030;-89
2021/07/14 10:29:12;;;;;;;1.88;1.00;;;19.20;99.90;;;;;;4978270;28;20120;-91
2021/07/14 10:31:39;;;;;;;4.05;1.35;;;19.30;99.90;;;;;;4977986;28;20085;-89
2021/07/14 10:34:07;;;;;;;3.33;0.90;;;19.40;99.90;;;;;;4978334;28;20026;-87
2021/07/14 10:36:36;;;;;;;1.17;0.90;;;19.50;99.90;;;;;;4977930;28;20117;-89
2021/07/14 10:39:13;;;;;;;1.38;1.00;;;19.40;99.90;;;;;;4979064;28;20026;-88
2021/07/14 10:41:40;;;;;;;1.75;0.93;;;19.40;99.90;;;;;;4995763;28;20034;-88
2021/07/14 10:44:07;;;;;;;1.88;0.90;;;19.50;99.90;;;;;;4997638;28;20049;-87
2021/07/14 10:46:34;;;;;;;2.00;1.10;;;19.60;99.90;;;;;;4996969;28;20026;-88
2021/07/14 10:49:02;;;;;;;1.85;0.95;;;19.60;99.90;;;;;;4979661;28;20458;-88
2021/07/14 10:51:30;;;;;;;1.08;0.85;;;19.60;99.90;;;;;;4978372;28;20022;-89
2021/07/14 10:54:00;;;;;;;1.42;1.23;;;19.80;99.90;;;;;;4977321;28;20018;-88
2021/07/14 10:56:28;;;;;;;1.85;0.80;;;19.90;99.90;;;;;;4977412;28;20490;-89
2021/07/14 10:58:54;;;;;;;5.60;0.80;;;20.10;99.90;;;;;;4977433;28;20073;-90
2021/07/14 11:01:40;;;;;;;1.33;0.70;;;20.30;99.90;;;;;;4977922;28;20533;-89
2021/07/14 11:04:33;;;;;;;3.15;0.80;;;20.30;99.90;;;;;;4978152;28;20081;-88
2021/07/14 11:07:06;;;;;;;1.85;0.80;;;20.40;99.90;;;;;;4967056;28;20037;-90
2021/07/14 11:09:37;;;;;;;2.65;1.10;;;20.60;99.90;;;;;;4977325;28;20035;-88
2021/07/14 11:12:06;;;;;;;1.75;0.80;;;20.90;99.90;;;;;;4977882;28;20030;-89
2021/07/14 11:14:40;;;;;;;1.05;0.75;;;21.10;99.90;;;;;;4977555;28;20117;-90
2021/07/14 11:17:09;;;;;;;1.15;0.70;;;20.90;99.90;;;;;;4977283;28;20486;-89
2021/07/14 11:20:13;;;;;;;1.23;0.82;;;20.70;99.90;;;;;;4977888;28;20033;-89
2021/07/14 11:22:45;;;;;;;3.50;0.80;;;20.80;99.90;;;;;;4972780;28;20034;-89
2021/07/14 11:25:19;;;;;;;2.92;0.80;;;20.60;99.90;;;;;;4961838;28;20405;-89
2021/07/14 11:27:54;;;;;;;3.60;0.70;;;20.70;99.90;;;;;;4977342;28;20030;-91
2021/07/14 11:30:19;;;;;;;;;;;20.80;99.90;;;;;;4977296;28;20026;-90
2021/07/14 11:32:45;;;;;;;0.70;0.40;;;20.90;99.90;;;;;;4994654;28;19905;-91
2021/07/14 11:35:20;;;;;;;2.55;0.80;;;21.30;99.90;;;;;;4976967;28;20125;-90
2021/07/14 11:38:00;;;;;;;2.17;0.52;;;21.30;99.90;;;;;;4994552;28;20072;-89
2021/07/14 11:40:27;;;;;;;3.22;0.70;;;20.80;99.90;;;;;;4976740;28;20069;-88
2021/07/14 11:42:56;;;;;;;1.40;0.68;;;20.80;99.90;;;;;;4976989;28;20033;-87
2021/07/14 11:45:34;;;;;;;1.35;0.60;;;20.50;99.90;;;;;;4976465;28;20023;-88
2021/07/14 11:48:15;;;;;;;0.80;0.57;;;20.40;99.90;;;;;;4976554;28;20109;-88
2021/07/14 11:50:44;;;;;;;2.00;0.52;;;20.40;99.90;;;;;;4976568;28;20026;-88
2021/07/14 11:53:31;;;;;;;0.50;0.50;;;20.50;99.90;;;;;;4976630;28;20026;-89
2021/07/14 11:56:04;;;;;;;0.80;0.60;;;21.00;99.90;;;;;;4976639;28;20038;-87
2021/07/14 11:58:42;;;;;;;1.17;0.65;;;21.80;99.90;;;;;;4976410;28;20037;-87
2021/07/14 12:01:31;;;;;;;3.70;0.60;;;21.80;99.90;;;;;;4977363;28;20034;-88
2021/07/14 12:04:03;;;;;;;0.68;0.55;;;21.80;99.90;;;;;;4962231;28;20533;-88
2021/07/14 12:06:37;;;;;;;2.55;0.47;;;21.60;99.90;;;;;;4974415;28;20562;-89
2021/07/14 12:09:04;;;;;;;;;;;21.30;99.90;;;;;;4957431;28;20034;-88
2021/07/14 12:11:30;;;;;;;3.85;0.65;;;21.00;99.90;;;;;;4957119;28;19906;-89
2021/07/14 12:13:58;;;;;;;0.60;0.45;;;21.10;99.90;;;;;;4956936;28;20023;-89
2021/07/14 12:16:25;;;;;;;2.60;0.50;;;21.40;99.90;;;;;;4959938;28;20019;-89
2021/07/14 12:18:55;;;;;;;1.00;0.52;;;21.50;99.90;;;;;;4978046;28;20022;-89
2021/07/14 12:21:35;;;;;;;1.23;0.80;;;21.60;99.90;;;;;;4960721;28;20023;-89
2021/07/14 12:24:01;;;;;;;1.58;0.60;;;21.50;99.90;;;;;;4960345;28;20456;-91
2021/07/14 12:26:27;;;;;;;5.53;0.50;;;21.70;99.90;;;;;;4960365;28;20046;-88
2021/07/14 12:28:53;;;;;;;2.20;0.50;;;21.40;99.90;;;;;;4960560;28;20027;-87
2021/07/14 12:31:19;;;;;;;2.40;0.75;;;21.30;99.90;;;;;;4960178;28;20542;-87
2021/07/14 12:33:53;;;;;;;3.40;0.70;;;21.80;99.90;;;;;;4960422;28;20023;-87
2021/07/14 12:36:19;;;;;;;4.05;0.50;;;22.10;99.90;;;;;;4960373;28;20050;-88
2021/07/14 12:38:56;;;;;;;2.47;0.50;;;22.60;99.90;;;;;;4960326;28;20031;-87
2021/07/14 12:41:26;;;;;;;1.90;0.60;;;23.00;99.90;;;;;;4960997;28;20474;-89
2021/07/14 12:44:10;;;;;;;1.10;0.50;;;22.70;99.90;;;;;;4959997;28;20040;-89
2021/07/14 12:46:36;;;;;;;1.20;0.50;;;22.70;99.90;;;;;;4960341;28;20030;-90
2021/07/14 12:49:13;;;;;;;1.92;0.50;;;22.80;99.90;;;;;;4960675;28;20478;-86
2021/07/14 12:51:40;;;;;;;1.20;0.70;;;22.40;99.90;;;;;;4959980;28;20027;-88
2021/07/14 12:54:06;;;;;;;1.25;0.60;;;22.60;99.90;;;;;;4962025;28;20422;-87
2021/07/14 12:56:32;;;;;;;0.50;0.40;;;22.30;99.90;;;;;;4982066;28;20049;-88
2021/07/14 12:59:04;;;;;;;0.80;0.63;;;22.30;99.90;;;;;;4995088;28;20022;-88
2021/07/14 13:01:31;;;;;;;0.65;0.55;;;22.70;99.90;;;;;;4962352;28;20475;-89
2021/07/14 13:03:58;;;;;;;0.80;0.40;;;22.60;99.90;;;;;;4980344;28;20058;-89
2021/07/14 13:06:24;;;;;;;2.85;0.65;;;22.70;99.90;;;;;;4979571;28;20065;-89